Time;durP1;ratioP1;P1;durP2;ratioP2;P2;SDS_P1;SDS_P2;PMS_P1;PMS_P2;Temp;Humidity;BMP_temperature;BMP_pressure;BME280_temperature;BME280_humidity;BME280_pressure;Samples;Min_cycle;Max_cycle;Signal;HPM_P1;HPM_P2
2022/11/29 00:02:38;;;;;;;;;;;;;;;4.82;66.77;100144.94;4471227;32;34910;-67
2022/11/29 00:05:06;;;;;;;;;;;;;;;4.14;69.29;100134.59;4464209;32;34275;-67
2022/11/29 00:17:52;;;;;;;;;;;;;;;5.33;65.94;100125.75;4468587;32;35668;-66
2022/11/29 00:20:37;;;;;;;;;;;;;;;5.24;67.00;100110.25;4475122;32;32165;-66
2022/11/29 00:23:04;;;;;;;;;;;;;;;5.40;66.86;100105.09;4469324;32;34068;-65
2022/11/29 00:25:32;;;;;;;;;;;;;;;5.23;67.10;100113.84;4475392;32;35183;-64
2022/11/29 00:27:59;;;;;;;;;;;;;;;5.18;66.58;100113.19;4468569;32;31396;-64
2022/11/29 00:30:26;;;;;;;;;;;;;;;5.07;67.37;100113.72;4466402;32;32557;-62
2022/11/29 00:32:54;;;;;;;;;;;;;;;4.50;68.77;100112.75;4472501;32;32845;-64
2022/11/29 00:35:21;;;;;;;;;;;;;;;5.30;67.52;100109.13;4473657;32;34038;-64
2022/11/29 00:37:48;;;;;;;;;;;;;;;4.78;69.74;100112.34;4468703;32;34478;-64
2022/11/29 00:40:16;;;;;;;;;;;;;;;5.38;67.81;100101.63;4472083;32;33460;-63
2022/11/29 00:42:43;;;;;;;;;;;;;;;5.52;67.12;100108.94;4474555;31;34406;-64
2022/11/29 00:45:11;;;;;;;;;;;;;;;5.82;65.63;100104.78;4477793;31;34131;-64
2022/11/29 00:47:38;;;;;;;;;;;;;;;5.56;65.71;100106.06;4467421;32;35403;-65
2022/11/29 00:50:06;;;;;;;;;;;;;;;5.43;66.68;100106.75;4472410;32;32483;-64
2022/11/29 00:52:33;;;;;;;;;;;;;;;4.66;70.17;100107.63;4467536;31;33946;-64
2022/11/29 00:55:00;;;;;;;;;;;;;;;5.08;67.71;100103.94;4466503;32;34495;-64
2022/11/29 00:57:28;;;;;;;;;;;;;;;5.00;68.64;100109.59;4467413;32;34262;-65
2022/11/29 00:59:55;;;;;;;;;;;;;;;5.63;66.85;100101.31;4465464;32;33357;-63
2022/11/29 01:02:22;;;;;;;;;;;;;;;4.67;70.10;100101.37;4468442;32;35195;-68
2022/11/29 01:04:50;;;;;;;;;;;;;;;4.26;70.36;100097.91;4473194;32;33160;-65
2022/11/29 01:07:17;;;;;;;;;;;;;;;4.95;69.04;100102.81;4472884;32;35358;-64
2022/11/29 01:09:45;;;;;;;;;;;;;;;5.10;68.02;100096.75;4468491;31;33090;-65
2022/11/29 01:12:12;;;;;;;;;;;;;;;5.65;66.30;100087.94;4474858;32;35620;-65
2022/11/29 01:14:40;;;;;;;;;;;;;;;5.82;66.34;100098.63;4470977;32;34333;-65
2022/11/29 01:17:08;;;;;;;;;;;;;;;5.61;66.77;100100.53;4467090;32;35176;-66
2022/11/29 01:19:36;;;;;;;;;;;;;;;6.06;64.75;100091.25;4465764;32;33094;-65
2022/11/29 01:22:03;;;;;;;;;;;;;;;5.03;67.80;100095.34;4472567;31;33391;-65
2022/11/29 01:24:31;;;;;;;;;;;;;;;5.55;66.87;100087.53;4444335;32;828613;-65
2022/11/29 01:26:58;;;;;;;;;;;;;;;5.89;65.31;100085.91;4470950;32;34276;-64
2022/11/29 01:29:25;;;;;;;;;;;;;;;6.06;64.70;100094.75;4466878;32;33635;-66
2022/11/29 01:31:53;;;;;;;;;;;;;;;6.05;65.14;100097.50;4455679;32;34121;-64
2022/11/29 01:34:20;;;;;;;;;;;;;;;5.61;65.72;100097.87;4474667;32;35224;-65
2022/11/29 01:36:47;;;;;;;;;;;;;;;6.09;64.50;100087.56;4468812;32;35218;-67
2022/11/29 01:39:14;;;;;;;;;;;;;;;5.63;65.63;100085.38;4471966;31;33529;-64
2022/11/29 01:41:42;;;;;;;;;;;;;;;5.77;64.88;100082.91;4475273;31;34056;-66
2022/11/29 01:44:12;;;;;;;;;;;;;;;5.00;67.36;100082.22;4469061;32;34135;-65
2022/11/29 01:46:40;;;;;;;;;;;;;;;5.42;66.61;100081.09;4477308;32;33392;-67
2022/11/29 01:49:21;;;;;;;;;;;;;;;5.12;67.32;100085.16;4478476;32;32386;-67
2022/11/29 01:51:49;;;;;;;;;;;;;;;5.55;66.28;100079.56;4459795;32;35233;-68
2022/11/29 01:54:17;;;;;;;;;;;;;;;5.57;66.49;100078.56;4470417;32;34490;-68
2022/11/29 01:56:44;;;;;;;;;;;;;;;5.66;65.67;100084.37;4465797;32;35476;-69
2022/11/29 01:59:13;;;;;;;;;;;;;;;5.10;67.41;100087.03;4471230;32;33996;-66
2022/11/29 02:01:41;;;;;;;;;;;;;;;5.54;66.97;100083.19;4465294;32;35012;-66
2022/11/29 02:04:08;;;;;;;;;;;;;;;5.71;65.57;100083.19;4475328;32;35183;-68
2022/11/29 02:06:36;;;;;;;;;;;;;;;5.48;66.19;100083.47;4475255;32;34282;-67
2022/11/29 02:09:04;;;;;;;;;;;;;;;5.57;66.26;100083.03;4469937;32;33530;-67
2022/11/29 02:11:40;;;;;;;;;;;;;;;5.45;66.38;100083.63;4469783;32;35261;-66
2022/11/29 02:14:07;;;;;;;;;;;;;;;6.01;64.44;100087.97;4469856;32;34066;-67
2022/11/29 02:16:44;;;;;;;;;;;;;;;5.55;66.31;100090.19;4474143;32;35204;-70
2022/11/29 02:19:24;;;;;;;;;;;;;;;5.95;64.40;100091.78;4475729;32;34234;-67
2022/11/29 02:21:55;;;;;;;;;;;;;;;4.85;68.09;100092.59;4469381;32;34632;-67
2022/11/29 02:24:42;;;;;;;;;;;;;;;5.00;67.21;100096.31;4452789;32;34120;-65
2022/11/29 02:27:21;;;;;;;;;;;;;;;5.31;67.39;100100.22;4464281;32;34182;-65
2022/11/29 02:29:52;;;;;;;;;;;;;;;5.43;66.96;100098.78;4456770;32;34447;-67
2022/11/29 02:32:25;;;;;;;;;;;;;;;5.38;65.76;100101.63;4471940;32;34359;-66
2022/11/29 02:34:56;;;;;;;;;;;;;;;5.15;66.19;100105.37;4454360;32;35751;-65
2022/11/29 02:37:35;;;;;;;;;;;;;;;4.43;68.42;100114.81;4458153;32;32589;-66
2022/11/29 02:40:06;;;;;;;;;;;;;;;4.85;68.18;100110.31;4464254;32;33154;-65
2022/11/29 02:42:47;;;;;;;;;;;;;;;5.09;67.55;100110.97;4469139;32;33173;-66
2022/11/29 02:45:41;;;;;;;;;;;;;;;4.31;69.20;100101.22;4465015;32;34160;-66
2022/11/29 02:48:22;;;;;;;;;;;;;;;4.20;70.38;100109.62;4469033;32;34417;-68
2022/11/29 02:50:55;;;;;;;;;;;;;;;4.94;67.29;100111.66;4462174;32;33387;-65
2022/11/29 02:53:34;;;;;;;;;;;;;;;4.95;67.17;100101.00;4474978;32;34035;-66
2022/11/29 02:56:11;;;;;;;;;;;;;;;4.01;70.84;100112.19;4454033;32;34046;-65
2022/11/29 02:58:57;;;;;;;;;;;;;;;4.44;69.86;100108.56;4475729;32;32786;-66
2022/11/29 03:01:27;;;;;;;;;;;;;;;5.27;66.81;100098.66;4463863;32;33259;-66
2022/11/29 03:04:07;;;;;;;;;;;;;;;4.63;68.30;100099.81;4461946;32;35723;-66
2022/11/29 03:06:53;;;;;;;;;;;;;;;5.31;67.18;100101.06;4463376;32;34672;-66
2022/11/29 03:09:24;;;;;;;;;;;;;;;5.26;67.52;100096.91;4465102;32;35724;-67
2022/11/29 03:12:04;;;;;;;;;;;;;;;5.10;67.48;100102.06;4451865;32;33701;-66
2022/11/29 03:14:34;;;;;;;;;;;;;;;5.29;66.66;100100.28;4470453;32;33702;-65
2022/11/29 03:17:40;;;;;;;;;;;;;;;5.37;67.37;100100.78;4477392;32;33109;-67
2022/11/29 03:20:20;;;;;;;;;;;;;;;5.57;65.54;100101.63;4417229;32;34140;-65
2022/11/29 03:22:50;;;;;;;;;;;;;;;5.54;65.59;100104.41;4414586;32;33403;-66
2022/11/29 03:25:20;;;;;;;;;;;;;;;5.44;66.05;100105.81;4444486;32;33089;-67
2022/11/29 03:28:00;;;;;;;;;;;;;;;5.76;65.13;100102.44;4453438;32;34209;-66
2022/11/29 03:30:27;;;;;;;;;;;;;;;6.58;62.39;100103.62;4464464;32;32997;-68
2022/11/29 03:33:07;;;;;;;;;;;;;;;6.45;61.86;100100.75;4457674;32;33524;-66
2022/11/29 03:35:52;;;;;;;;;;;;;;;6.73;60.42;100103.69;4469743;32;34228;-65
2022/11/29 03:38:23;;;;;;;;;;;;;;;5.97;62.52;100105.88;4466438;32;32819;-67
2022/11/29 03:40:55;;;;;;;;;;;;;;;5.67;63.94;100108.19;4458694;32;33372;-65
2022/11/29 03:43:25;;;;;;;;;;;;;;;5.93;63.34;100109.59;4463922;32;34580;-67
2022/11/29 03:46:07;;;;;;;;;;;;;;;5.44;64.66;100116.41;4459721;32;33076;-66
2022/11/29 03:48:35;;;;;;;;;;;;;;;5.52;64.55;100114.25;4464497;32;33332;-66
2022/11/29 03:51:09;;;;;;;;;;;;;;;5.90;63.20;100114.16;4456975;32;34674;-67
2022/11/29 03:53:42;;;;;;;;;;;;;;;5.68;63.17;100112.59;4472698;32;33296;-66
2022/11/29 03:56:39;;;;;;;;;;;;;;;5.44;63.28;100119.94;4469494;32;34618;-66
2022/11/29 03:59:25;;;;;;;;;;;;;;;4.53;66.24;100131.16;4457504;32;33949;-67
2022/11/29 04:02:15;;;;;;;;;;;;;;;5.05;65.45;100115.56;4464855;32;34300;-69
2022/11/29 04:04:48;;;;;;;;;;;;;;;5.07;65.60;100115.47;4451175;32;35158;-67
2022/11/29 04:07:24;;;;;;;;;;;;;;;5.58;63.41;100122.78;4472682;32;33768;-70
2022/11/29 04:09:55;;;;;;;;;;;;;;;5.22;64.80;100129.84;4451865;32;34315;-68
2022/11/29 04:12:31;;;;;;;;;;;;;;;5.23;64.45;100127.12;4466662;32;34539;-67
2022/11/29 04:15:17;;;;;;;;;;;;;;;4.54;65.99;100139.97;4466919;32;33619;-66
2022/11/29 04:17:50;;;;;;;;;;;;;;;5.04;65.93;100123.56;4468224;32;34189;-66
2022/11/29 04:20:35;;;;;;;;;;;;;;;5.18;65.42;100136.22;4465551;32;34240;-66
2022/11/29 04:23:10;;;;;;;;;;;;;;;5.07;65.10;100134.94;4467479;32;35350;-65
2022/11/29 04:25:56;;;;;;;;;;;;;;;4.92;66.36;100140.06;4466744;32;32821;-68
2022/11/29 04:28:42;;;;;;;;;;;;;;;4.68;67.43;100134.91;4466110;32;32938;-67
2022/11/29 04:31:29;;;;;;;;;;;;;;;5.51;64.06;100133.78;4452820;32;32830;-67
2022/11/29 04:33:59;;;;;;;;;;;;;;;5.33;64.31;100136.38;4467835;32;34566;-67
2022/11/29 04:36:37;;;;;;;;;;;;;;;3.79;69.79;100138.72;4471789;32;33671;-65
2022/11/29 04:39:23;;;;;;;;;;;;;;;5.57;64.17;100128.16;4458556;32;34875;-67
2022/11/29 04:41:54;;;;;;;;;;;;;;;5.44;63.78;100129.69;4464677;32;33657;-69
2022/11/29 04:44:36;;;;;;;;;;;;;;;5.33;64.50;100138.16;4465147;32;34318;-67
2022/11/29 04:47:09;;;;;;;;;;;;;;;5.37;64.12;100131.78;4453234;32;33455;-66
2022/11/29 04:49:42;;;;;;;;;;;;;;;4.96;64.65;100141.66;4470267;32;34101;-68
2022/11/29 04:52:12;;;;;;;;;;;;;;;4.29;68.46;100141.03;4468141;32;34206;-67
2022/11/29 04:54:58;;;;;;;;;;;;;;;4.96;66.53;100147.81;4453711;32;34335;-69
2022/11/29 04:57:30;;;;;;;;;;;;;;;5.15;65.56;100150.50;4468992;32;32289;-69
2022/11/29 05:00:06;;;;;;;;;;;;;;;4.46;66.90;100156.19;4459259;32;35225;-68
2022/11/29 05:02:46;;;;;;;;;;;;;;;4.74;66.73;100155.87;4467106;32;35196;-68
2022/11/29 05:05:19;;;;;;;;;;;;;;;5.17;64.83;100156.59;4463587;32;34415;-67
2022/11/29 05:07:49;;;;;;;;;;;;;;;5.67;63.65;100158.66;4473752;32;33181;-69
2022/11/29 05:10:21;;;;;;;;;;;;;;;5.70;63.19;100161.16;4455617;32;34297;-71
2022/11/29 05:12:58;;;;;;;;;;;;;;;5.00;66.17;100160.00;4457360;32;35693;-66
2022/11/29 05:15:31;;;;;;;;;;;;;;;5.65;64.29;100163.19;4478998;32;34290;-68
2022/11/29 05:18:05;;;;;;;;;;;;;;;5.58;63.34;100159.09;4469073;32;33553;-70
2022/11/29 05:20:32;;;;;;;;;;;;;;;5.27;65.76;100160.53;4471996;32;34904;-68
2022/11/29 05:23:18;;;;;;;;;;;;;;;4.66;66.44;100169.47;4468035;32;34361;-66
2022/11/29 05:26:01;;;;;;;;;;;;;;;4.51;67.85;100167.47;4471429;32;33239;-66
2022/11/29 05:28:34;;;;;;;;;;;;;;;4.85;65.61;100166.88;4474915;32;34479;-69
2022/11/29 05:31:12;;;;;;;;;;;;;;;4.57;68.07;100171.66;4456869;32;34074;-68
2022/11/29 05:33:59;;;;;;;;;;;;;;;4.52;67.97;100170.97;4464726;32;37310;-68
2022/11/29 05:36:26;;;;;;;;;;;;;;;5.35;64.63;100170.78;4466926;32;33824;-66
2022/11/29 05:38:53;;;;;;;;;;;;;;;5.48;64.18;100171.09;4469097;32;33363;-69
2022/11/29 05:41:20;;;;;;;;;;;;;;;5.51;65.04;100173.59;4457564;32;33664;-72
2022/11/29 05:44:08;;;;;;;;;;;;;;;4.87;66.84;100177.41;4467275;32;34163;-69
2022/11/29 05:46:38;;;;;;;;;;;;;;;5.27;65.71;100180.91;4459817;32;35235;-69
2022/11/29 05:49:15;;;;;;;;;;;;;;;4.88;66.53;100184.44;4465114;32;32503;-68
2022/11/29 05:51:51;;;;;;;;;;;;;;;5.07;64.87;100179.16;4471404;32;33784;-68
2022/11/29 05:54:18;;;;;;;;;;;;;;;4.45;67.04;100181.00;4459682;32;34358;-69
2022/11/29 05:57:07;;;;;;;;;;;;;;;4.85;65.34;100182.78;4472176;32;34320;-68
2022/11/29 05:59:35;;;;;;;;;;;;;;;4.03;68.39;100181.00;4454478;32;33465;-71
2022/11/29 06:02:12;;;;;;;;;;;;;;;3.88;68.90;100193.91;4461683;32;32722;-68
2022/11/29 06:05:02;;;;;;;;;;;;;;;3.99;68.93;100195.31;4473990;32;34407;-68
2022/11/29 06:07:40;;;;;;;;;;;;;;;4.22;67.69;100194.34;4457933;32;35030;-68
2022/11/29 06:10:10;;;;;;;;;;;;;;;4.44;67.97;100188.09;4462432;32;33441;-68
2022/11/29 06:12:37;;;;;;;;;;;;;;;4.39;66.77;100189.19;4458360;32;33832;-68
2022/11/29 06:15:12;;;;;;;;;;;;;;;4.62;66.58;100198.81;4469955;32;34802;-69
2022/11/29 06:17:43;;;;;;;;;;;;;;;4.42;67.20;100191.72;4459290;32;33150;-70
2022/11/29 06:20:19;;;;;;;;;;;;;;;5.35;64.11;100202.66;4467055;32;32581;-70
2022/11/29 06:23:06;;;;;;;;;;;;;;;4.62;67.01;100201.47;4469270;32;32761;-69
2022/11/29 06:25:41;;;;;;;;;;;;;;;4.92;65.62;100206.37;4453423;32;35451;-68
2022/11/29 06:28:13;;;;;;;;;;;;;;;5.08;64.39;100216.25;4473837;32;34342;-69
2022/11/29 06:30:46;;;;;;;;;;;;;;;4.71;64.87;100216.13;4455218;32;32779;-69
2022/11/29 06:33:17;;;;;;;;;;;;;;;4.95;66.10;100204.47;4463936;32;32613;-68
2022/11/29 06:35:45;;;;;;;;;;;;;;;4.15;66.84;100207.00;4456961;32;35414;-68
2022/11/29 06:38:15;;;;;;;;;;;;;;;5.06;66.24;100210.13;4467056;32;34236;-68
2022/11/29 06:40:43;;;;;;;;;;;;;;;4.86;65.83;100210.16;4469832;32;33096;-70
2022/11/29 06:43:10;;;;;;;;;;;;;;;5.56;63.67;100208.78;4475847;32;34032;-68
2022/11/29 06:45:38;;;;;;;;;;;;;;;5.80;62.20;100212.91;4470223;32;34023;-69
2022/11/29 06:48:06;;;;;;;;;;;;;;;5.24;64.07;100216.41;4460864;32;34258;-70
2022/11/29 06:50:42;;;;;;;;;;;;;;;4.80;66.13;100221.03;4471268;32;32322;-72
2022/11/29 06:53:25;;;;;;;;;;;;;;;4.20;67.48;100213.84;4470344;32;34716;-68
2022/11/29 06:55:52;;;;;;;;;;;;;;;4.92;65.56;100225.81;4467009;32;33787;-68
2022/11/29 06:58:20;;;;;;;;;;;;;;;4.88;65.84;100234.84;4468696;32;35140;-68
2022/11/29 07:00:50;;;;;;;;;;;;;;;4.70;66.49;100225.03;4467510;32;32250;-68
2022/11/29 07:03:36;;;;;;;;;;;;;;;3.94;67.73;100235.19;4474496;32;33106;-69
2022/11/29 07:06:09;;;;;;;;;;;;;;;4.55;67.39;100230.03;4475463;32;34436;-69
2022/11/29 07:08:37;;;;;;;;;;;;;;;5.23;64.83;100227.97;4455184;32;35751;-68
2022/11/29 07:11:04;;;;;;;;;;;;;;;4.72;66.13;100233.75;4453718;32;33468;-68
2022/11/29 07:13:32;;;;;;;;;;;;;;;5.11;64.23;100231.19;4472851;32;33613;-68
2022/11/29 07:16:15;;;;;;;;;;;;;;;4.76;66.66;100235.38;4474312;32;34523;-67
2022/11/29 07:19:01;;;;;;;;;;;;;;;5.00;66.11;100228.13;4450670;32;33464;-70
2022/11/29 07:21:41;;;;;;;;;;;;;;;5.13;65.31;100237.25;4472616;32;33376;-70
2022/11/29 07:24:11;;;;;;;;;;;;;;;4.71;65.70;100224.94;4466948;32;34027;-68
2022/11/29 07:27:05;;;;;;;;;;;;;;;4.86;65.56;100229.59;4468275;32;34399;-71
2022/11/29 07:29:51;;;;;;;;;;;;;;;5.11;65.59;100233.81;4447573;32;35275;-70
2022/11/29 07:32:23;;;;;;;;;;;;;;;5.58;63.68;100236.09;4464119;32;33742;-70
2022/11/29 07:34:50;;;;;;;;;;;;;;;5.41;64.69;100228.91;4463709;32;32814;-70
2022/11/29 07:37:20;;;;;;;;;;;;;;;5.57;64.13;100237.03;4469549;32;34132;-67
2022/11/29 07:39:56;;;;;;;;;;;;;;;5.96;62.41;100231.66;4464650;32;35323;-71
2022/11/29 07:42:39;;;;;;;;;;;;;;;5.59;63.54;100235.19;4461674;32;32155;-67
2022/11/29 07:45:06;;;;;;;;;;;;;;;4.77;66.69;100243.25;4465665;32;35232;-67
2022/11/29 07:47:33;;;;;;;;;;;;;;;4.62;67.15;100236.81;4464065;32;34598;-67
2022/11/29 07:50:02;;;;;;;;;;;;;;;5.24;64.29;100242.97;4465175;32;34391;-70
2022/11/29 07:52:29;;;;;;;;;;;;;;;4.55;67.03;100250.37;4477928;32;33371;-67
2022/11/29 07:54:57;;;;;;;;;;;;;;;4.50;66.93;100244.44;4464970;32;35042;-67
2022/11/29 07:57:24;;;;;;;;;;;;;;;4.82;66.96;100243.06;4469168;32;34273;-67
2022/11/29 07:59:51;;;;;;;;;;;;;;;4.43;67.41;100243.81;4474178;32;33087;-70
2022/11/29 08:02:26;;;;;;;;;;;;;;;5.07;65.23;100234.88;4469250;32;33670;-67
2022/11/29 08:04:53;;;;;;;;;;;;;;;5.24;64.76;100237.66;4468313;32;33873;-67
2022/11/29 08:07:21;;;;;;;;;;;;;;;5.53;64.36;100246.09;4468772;32;32460;-67
2022/11/29 08:09:48;;;;;;;;;;;;;;;5.82;63.28;100240.28;4470812;32;34505;-67
2022/11/29 08:12:15;;;;;;;;;;;;;;;5.24;65.44;100248.28;4476087;32;34528;-66
2022/11/29 08:14:43;;;;;;;;;;;;;;;4.40;68.43;100244.81;4467417;32;33672;-67
2022/11/29 08:17:10;;;;;;;;;;;;;;;3.76;70.96;100251.78;4455885;32;34284;-70
2022/11/29 08:19:38;;;;;;;;;;;;;;;4.48;68.65;100249.78;4480827;32;34975;-67
2022/11/29 08:22:05;;;;;;;;;;;;;;;4.41;67.66;100246.53;4461231;32;33185;-67
2022/11/29 08:24:32;;;;;;;;;;;;;;;4.63;67.36;100240.34;4468854;32;32766;-67
2022/11/29 08:27:00;;;;;;;;;;;;;;;5.07;65.93;100240.19;4474051;32;34374;-67
2022/11/29 08:29:27;;;;;;;;;;;;;;;5.16;65.46;100228.31;4465637;32;34166;-67
2022/11/29 08:31:54;;;;;;;;;;;;;;;5.38;64.18;100232.56;4466427;32;33358;-67
2022/11/29 08:34:22;;;;;;;;;;;;;;;4.85;66.42;100241.13;4471432;32;34526;-67
2022/11/29 08:36:50;;;;;;;;;;;;;;;4.91;65.74;100234.69;4473277;32;34190;-67
2022/11/29 08:39:17;;;;;;;;;;;;;;;5.36;65.56;100237.09;4477882;32;34214;-68
2022/11/29 08:41:44;;;;;;;;;;;;;;;5.48;64.93;100240.13;4467217;32;34147;-67
2022/11/29 08:44:12;;;;;;;;;;;;;;;5.99;62.99;100236.84;4475790;32;33892;-67
2022/11/29 08:49:25;;;;;;;;;;;;;;;5.27;65.11;100241.97;4467717;32;34706;-67
2022/11/29 08:53:40;;;;;;;;;;;;;;;5.26;65.52;100246.38;4469212;32;34357;-66
2022/11/29 08:54:40;;;;;;;;;;;;;;;5.27;64.24;100244.63;4466990;32;34169;-67
2022/11/29 08:57:07;;;;;;;;;;;;;;;5.05;65.70;100239.41;4463931;32;34025;-69
2022/11/29 08:59:54;;;;;;;;;;;;;;;4.44;67.58;100241.09;4474535;32;34099;-68
2022/11/29 09:02:22;;;;;;;;;;;;;;;4.86;66.09;100234.03;4474287;32;33336;-67
2022/11/29 09:04:49;;;;;;;;;;;;;;;4.85;67.31;100241.13;4478116;32;33936;-67
2022/11/29 09:07:17;;;;;;;;;;;;;;;5.09;64.64;100239.19;4474303;32;34364;-67
2022/11/29 09:09:44;;;;;;;;;;;;;;;5.17;64.71;100236.22;4473254;32;33174;-71
2022/11/29 09:12:11;;;;;;;;;;;;;;;5.17;64.67;100236.22;4482893;32;33415;-67
2022/11/29 09:14:39;;;;;;;;;;;;;;;5.45;64.66;100234.94;4472079;32;34164;-67
2022/11/29 09:17:06;;;;;;;;;;;;;;;5.33;64.52;100234.59;4465288;32;34538;-69
2022/11/29 09:19:33;;;;;;;;;;;;;;;4.94;65.54;100226.59;4477864;32;34919;-67
2022/11/29 09:22:01;;;;;;;;;;;;;;;4.43;66.07;100231.44;4468892;32;33306;-67
2022/11/29 09:24:28;;;;;;;;;;;;;;;5.09;64.46;100225.91;4472122;32;32742;-67
2022/11/29 09:26:56;;;;;;;;;;;;;;;5.20;63.72;100236.06;4470134;32;34386;-67
2022/11/29 09:29:24;;;;;;;;;;;;;;;5.32;63.41;100226.69;4470805;32;35488;-69
2022/11/29 09:31:51;;;;;;;;;;;;;;;5.46;63.50;100226.06;4474477;32;33313;-67
2022/11/29 09:34:18;;;;;;;;;;;;;;;5.97;60.78;100228.09;4471396;32;35440;-69
2022/11/29 09:36:47;;;;;;;;;;;;;;;4.87;63.46;100233.94;4470469;32;33865;-68
2022/11/29 09:39:14;;;;;;;;;;;;;;;6.21;61.36;100228.69;4471483;32;33213;-67
2022/11/29 09:41:41;;;;;;;;;;;;;;;6.35;60.47;100227.13;4467341;32;33372;-67
2022/11/29 09:44:14;;;;;;;;;;;;;;;6.65;60.15;100224.75;4472222;32;33998;-65
2022/11/29 09:46:42;;;;;;;;;;;;;;;6.43;61.13;100222.31;4472264;32;34280;-66
2022/11/29 09:49:21;;;;;;;;;;;;;;;6.96;59.09;100221.34;4470696;32;34531;-66
2022/11/29 09:51:48;;;;;;;;;;;;;;;6.60;60.38;100213.47;4472706;32;34794;-67
2022/11/29 09:54:22;;;;;;;;;;;;;;;7.83;55.87;100213.09;4468308;32;34233;-66
2022/11/29 09:56:50;;;;;;;;;;;;;;;8.34;55.06;100211.06;4469535;32;33172;-67
2022/11/29 09:59:17;;;;;;;;;;;;;;;7.64;56.21;100214.16;4459840;32;34592;-67
2022/11/29 10:01:45;;;;;;;;;;;;;;;8.51;54.34;100212.81;4473916;32;33590;-66
2022/11/29 10:04:17;;;;;;;;;;;;;;;8.06;53.67;100202.03;4458484;32;34831;-65
2022/11/29 10:06:47;;;;;;;;;;;;;;;7.84;55.50;100205.03;4465041;32;33601;-66
2022/11/29 10:09:21;;;;;;;;;;;;;;;8.25;54.01;100199.16;4464881;32;33664;-65
2022/11/29 10:12:07;;;;;;;;;;;;;;;8.02;54.20;100196.94;4483232;32;33569;-66
2022/11/29 10:14:40;;;;;;;;;;;;;;;8.01;53.80;100193.41;4467989;32;33991;-64
2022/11/29 10:17:12;;;;;;;;;;;;;;;8.48;52.85;100186.31;4474202;32;35527;-65
2022/11/29 10:19:41;;;;;;;;;;;;;;;8.42;52.87;100182.19;4464322;32;35492;-67
2022/11/29 10:22:08;;;;;;;;;;;;;;;8.66;53.06;100184.34;4466532;32;33771;-65
2022/11/29 10:24:35;;;;;;;;;;;;;;;8.50;53.91;100176.41;4467569;32;34298;-66
2022/11/29 10:27:22;;;;;;;;;;;;;;;7.21;55.49;100184.50;4468261;32;34011;-65
2022/11/29 10:29:50;;;;;;;;;;;;;;;7.47;55.24;100180.41;4478043;32;34335;-68
2022/11/29 10:32:20;;;;;;;;;;;;;;;6.97;57.08;100180.50;4476597;32;33666;-66
2022/11/29 10:34:47;;;;;;;;;;;;;;;7.15;56.24;100186.66;4475131;32;32982;-69
2022/11/29 10:37:16;;;;;;;;;;;;;;;6.65;56.78;100185.72;4472591;32;32913;-66
2022/11/29 10:39:47;;;;;;;;;;;;;;;5.82;59.88;100192.44;4470145;32;34257;-65
2022/11/29 10:45:26;;;;;;;;;;;;;;;6.22;59.11;100187.88;4464868;32;34861;-65
2022/11/29 10:47:54;;;;;;;;;;;;;;;6.11;59.44;100192.00;4475346;32;34348;-67
2022/11/29 10:50:23;;;;;;;;;;;;;;;5.08;61.30;100195.03;4462405;32;33174;-68
2022/11/29 10:52:52;;;;;;;;;;;;;;;5.29;62.14;100187.84;4468889;32;34423;-65
2022/11/29 10:55:26;;;;;;;;;;;;;;;5.27;62.14;100194.19;4461199;32;34059;-66
2022/11/29 10:58:06;;;;;;;;;;;;;;;5.40;61.43;100198.00;4455387;32;35410;-67
2022/11/29 11:01:05;;;;;;;;;;;;;;;5.55;60.95;100189.31;4466219;32;34165;-68
2022/11/29 11:03:44;;;;;;;;;;;;;;;5.40;61.16;100178.56;4457491;32;32423;-68
2022/11/29 11:06:18;;;;;;;;;;;;;;;5.10;61.81;100181.66;4459453;32;33941;-68
2022/11/29 11:08:51;;;;;;;;;;;;;;;5.38;61.42;100178.63;4467019;32;34435;-67
2022/11/29 11:11:22;;;;;;;;;;;;;;;5.25;62.25;100180.97;4468249;32;33962;-66
2022/11/29 11:14:03;;;;;;;;;;;;;;;5.28;63.54;100185.28;4457971;32;33095;-74
2022/11/29 11:16:31;;;;;;;;;;;;;;;5.04;64.79;100181.94;4470999;31;34073;-71
2022/11/29 11:19:24;;;;;;;;;;;;;;;5.60;61.92;100179.34;4463074;32;34029;-70
2022/11/29 11:21:52;;;;;;;;;;;;;;;5.64;62.07;100184.50;4472767;32;34232;-68
2022/11/29 11:24:22;;;;;;;;;;;;;;;5.78;60.98;100182.91;4473089;32;33952;-68
2022/11/29 11:26:49;;;;;;;;;;;;;;;6.01;61.69;100180.97;4465466;32;33983;-67
2022/11/29 11:29:30;;;;;;;;;;;;;;;6.52;59.67;100184.62;4451875;32;32849;-67
2022/11/29 11:31:58;;;;;;;;;;;;;;;6.28;61.00;100178.72;4459523;32;35223;-66
2022/11/29 11:34:32;;;;;;;;;;;;;;;5.51;63.06;100184.22;4470863;32;35171;-67
2022/11/29 11:37:19;;;;;;;;;;;;;;;5.51;62.54;100187.72;4457575;32;35130;-66
2022/11/29 11:39:51;;;;;;;;;;;;;;;5.90;62.62;100191.22;4466857;31;35605;-67
2022/11/29 11:42:38;;;;;;;;;;;;;;;6.19;61.22;100189.81;4477692;32;34420;-68
2022/11/29 11:45:26;;;;;;;;;;;;;;;6.07;61.91;100184.19;4468920;32;35061;-65
2022/11/29 11:47:54;;;;;;;;;;;;;;;6.44;59.71;100184.13;4471684;32;34264;-67
2022/11/29 11:50:33;;;;;;;;;;;;;;;6.64;59.41;100180.47;4466987;32;34235;-68
2022/11/29 11:53:20;;;;;;;;;;;;;;;6.79;58.73;100186.78;4474322;32;34647;-68
2022/11/29 11:55:58;;;;;;;;;;;;;;;6.06;60.34;100178.94;4465548;32;34598;-67
2022/11/29 11:58:45;;;;;;;;;;;;;;;5.73;63.09;100195.53;4466458;32;34327;-66
2022/11/29 12:01:16;;;;;;;;;;;;;;;5.63;62.20;100188.97;4454412;32;33008;-67
2022/11/29 12:03:48;;;;;;;;;;;;;;;6.11;61.02;100187.56;4468358;32;34170;-66
2022/11/29 12:06:18;;;;;;;;;;;;;;;5.53;62.56;100185.87;4475946;32;34532;-67
2022/11/29 12:08:47;;;;;;;;;;;;;;;6.39;60.29;100187.03;4470473;32;35738;-68
2022/11/29 12:11:15;;;;;;;;;;;;;;;6.84;59.00;100180.31;4472361;31;33678;-67
2022/11/29 12:13:53;;;;;;;;;;;;;;;6.78;59.86;100179.75;4456252;32;32972;-68
2022/11/29 12:16:26;;;;;;;;;;;;;;;7.54;57.64;100182.75;4453985;32;33475;-67
2022/11/29 12:19:13;;;;;;;;;;;;;;;7.04;57.23;100178.38;4455121;31;33681;-67
2022/11/29 12:21:42;;;;;;;;;;;;;;;6.47;58.86;100181.31;4474762;32;34259;-67
2022/11/29 12:24:09;;;;;;;;;;;;;;;6.58;59.16;100173.69;4465151;32;34192;-67
2022/11/29 12:26:37;;;;;;;;;;;;;;;7.11;57.58;100177.97;4454041;32;34323;-68
2022/11/29 12:29:26;;;;;;;;;;;;;;;7.36;57.34;100171.31;4465321;32;34363;-68
2022/11/29 12:32:00;;;;;;;;;;;;;;;7.00;58.80;100170.56;4470018;32;32940;-67
2022/11/29 12:34:32;;;;;;;;;;;;;;;6.79;58.62;100171.69;4478827;32;33708;-69
2022/11/29 12:37:09;;;;;;;;;;;;;;;6.83;58.71;100169.72;4472316;32;33407;-68
2022/11/29 12:39:42;;;;;;;;;;;;;;;7.00;58.58;100167.03;4467428;32;35156;-70
2022/11/29 12:42:22;;;;;;;;;;;;;;;6.98;58.32;100163.59;4470348;32;34417;-70
2022/11/29 12:44:50;;;;;;;;;;;;;;;7.51;57.68;100159.81;4470991;32;34089;-68
2022/11/29 12:47:26;;;;;;;;;;;;;;;7.96;55.74;100151.97;4469564;32;34471;-68
2022/11/29 12:50:21;;;;;;;;;;;;;;;8.17;54.59;100159.59;4457323;32;34825;-69
2022/11/29 12:53:01;;;;;;;;;;;;;;;7.91;56.47;100155.75;4468203;32;34085;-70
2022/11/29 12:55:42;;;;;;;;;;;;;;;7.99;55.55;100157.12;4469739;32;34224;-70
2022/11/29 12:58:12;;;;;;;;;;;;;;;7.60;56.34;100167.28;4458388;32;33732;-69
2022/11/29 13:00:49;;;;;;;;;;;;;;;7.43;57.90;100154.91;4470005;32;34564;-68
2022/11/29 13:03:25;;;;;;;;;;;;;;;7.83;56.50;100152.69;4462504;32;34328;-67
2022/11/29 13:05:55;;;;;;;;;;;;;;;7.00;58.50;100153.75;4454965;32;34777;-69
2022/11/29 13:08:37;;;;;;;;;;;;;;;7.35;58.36;100151.81;4473147;32;33830;-68
2022/11/29 13:11:07;;;;;;;;;;;;;;;7.47;58.02;100159.13;4465325;32;35221;-69
2022/11/29 13:13:39;;;;;;;;;;;;;;;8.07;56.06;100154.88;4467737;32;34041;-67
2022/11/29 13:16:25;;;;;;;;;;;;;;;7.97;56.64;100159.03;4462890;32;34777;-67
2022/11/29 13:19:16;;;;;;;;;;;;;;;7.30;59.09;100153.00;4466104;32;34618;-69
2022/11/29 13:22:06;;;;;;;;;;;;;;;8.15;55.98;100155.28;4467399;32;33528;-69
2022/11/29 13:24:36;;;;;;;;;;;;;;;7.85;56.48;100153.44;4454442;32;34980;-68
2022/11/29 13:27:12;;;;;;;;;;;;;;;8.28;55.79;100153.66;4458163;32;33134;-68
2022/11/29 13:29:40;;;;;;;;;;;;;;;8.06;56.81;100161.19;4469893;32;33989;-68
2022/11/29 13:32:07;;;;;;;;;;;;;;;8.73;54.65;100157.22;4462456;32;32639;-69
2022/11/29 13:34:41;;;;;;;;;;;;;;;8.99;54.19;100158.28;4461026;32;34007;-70
2022/11/29 13:37:27;;;;;;;;;;;;;;;8.99;53.81;100150.28;4460248;32;34437;-71